Accueil
METAR-TAF:

METAR-TAF

Aéroports :

Gilze-Rijen, Pays-Bas

latitude: 51-34N, longitude: 004-56E, altitude: 15 m

Observation

Le bulletin a été fait il y a 39 minutes, à 01:55 UTC
Vent 8 kt de nord, variant entre nord-ouest et est/nord-est
Température 3°C
Humidité 81%
Pression 1027 hPa
Visibilité 10 km ou plus

METAR: EHGR 170155Z AUTO 01008KT 320V070 9999 NCD 03/00 Q1027 BLU

Heure: 04:34 (02:34 UTC)

Prévision

Le bulletin a été fait il y a 18 heures et 22 minutes, à 08:12 UTC
Prévision valable du 16 à 09 UTC au 16 à 21 UTC
Vent 8 kt de nord/nord-est
Visibilité 10 km ou plus
Nuages épars à une hauteur de 3000 ft

TAF: EHGR 160812Z 1609/1621 02008KT 9999 SCT030

Observations et prévisions météorologiques de plus de 4000 aéroports (messages METAR et TAF).

Les stations disponibles sont représentées par des disques jaunes et rouges sur la carte.

Passer la souris dessus pour voir le nom de la station.

Cliquer dessus pour voir les observations et prévisions météorologiques.

Pour changer de carte: cliquez sur les boutons verts avec une croix noire pour zoomer, sur le bouton vert avec un tiret pour effectuer un zoom arrière, ou sur les flèches vertes pour les cartes adjacentes.


METAR-TAF: